Time;durP1;ratioP1;P1;durP2;ratioP2;P2;SDS_P1;SDS_P2;PMS_P1;PMS_P2;Temp;Humidity;BMP_temperature;BMP_pressure;BME280_temperature;BME280_humidity;BME280_pressure;Samples;Min_cycle;Max_cycle;Signal;HPM_P1;HPM_P2
2023/05/14 00:01:29;;;;;;;14.68;9.85;;;;;;;14.57;95.94;101919.44;5075255;28;20123;-79
2023/05/14 00:03:54;;;;;;;15.55;9.32;;;;;;;14.65;95.01;101918.31;5074481;28;20636;-79
2023/05/14 00:06:20;;;;;;;16.42;9.07;;;;;;;14.57;95.59;101914.59;5078042;28;20027;-79
2023/05/14 00:08:45;;;;;;;14.45;8.68;;;;;;;14.66;94.68;101910.69;5076311;28;20393;-79
2023/05/14 00:11:11;;;;;;;11.75;9.07;;;;;;;14.74;94.49;101923.69;5073436;28;20046;-79
2023/05/14 00:13:36;;;;;;;13.15;9.32;;;;;;;14.63;94.98;101915.06;5068361;28;20869;-79
2023/05/14 00:16:02;;;;;;;15.35;9.85;;;;;;;14.56;95.63;101906.50;5087019;28;20102;-79
2023/05/14 00:18:27;;;;;;;16.55;9.68;;;;;;;14.52;95.40;101899.97;5070324;28;20099;-79
2023/05/14 00:20:53;;;;;;;17.23;9.63;;;;;;;14.53;95.57;101898.81;5088113;28;20020;-79
2023/05/14 00:23:22;;;;;;;16.67;10.23;;;;;;;14.68;93.95;101903.47;5067814;28;20427;-79
2023/05/14 00:25:48;;;;;;;16.40;10.82;;;;;;;14.48;95.99;101896.31;5088831;28;20044;-79
2023/05/14 00:28:13;;;;;;;16.13;9.88;;;;;;;14.53;95.14;101885.53;5068424;28;20032;-79
2023/05/14 00:30:39;;;;;;;14.10;9.32;;;;;;;14.47;96.04;101886.25;5092333;28;20388;-79
2023/05/14 00:33:05;;;;;;;12.60;8.18;;;;;;;14.49;95.84;101889.50;5075736;28;20071;-79
2023/05/14 00:35:32;;;;;;;15.05;9.30;;;;;;;14.31;97.24;101884.38;5093902;28;20077;-79
2023/05/14 00:37:57;;;;;;;16.13;10.10;;;;;;;14.38;96.08;101878.06;5092968;28;20566;-79
2023/05/14 00:40:25;;;;;;;16.83;9.07;;;;;;;14.61;94.76;101881.66;5087101;28;20135;-79
2023/05/14 00:42:51;;;;;;;15.18;9.18;;;;;;;14.50;95.11;101874.19;5070562;28;20031;-79
2023/05/14 00:45:16;;;;;;;18.60;9.32;;;;;;;14.51;95.00;101871.00;5095599;28;20035;-79
2023/05/14 00:47:43;;;;;;;12.48;9.10;;;;;;;14.59;94.70;101878.41;5078100;28;20042;-79
2023/05/14 00:50:11;;;;;;;15.73;9.38;;;;;;;14.28;96.43;101859.00;5093303;28;20023;-79
2023/05/14 00:52:37;;;;;;;14.77;10.52;;;;;;;14.27;96.60;101863.81;5079044;28;20358;-79
2023/05/14 00:55:06;;;;;;;15.73;9.13;;;;;;;14.20;96.82;101867.31;5062835;28;20648;-79
2023/05/14 00:57:33;;;;;;;13.93;9.57;;;;;;;14.19;96.77;101864.91;5082875;28;20028;-79
2023/05/14 00:59:59;;;;;;;19.45;11.50;;;;;;;14.26;96.07;101859.38;5070312;28;20053;-79
2023/05/14 01:02:25;;;;;;;14.38;9.55;;;;;;;14.22;96.39;101852.88;5075436;28;20027;-79
2023/05/14 01:04:52;;;;;;;14.65;9.05;;;;;;;14.09;97.38;101859.94;5081054;28;20031;-79
2023/05/14 01:07:26;;;;;;;16.33;9.98;;;;;;;14.22;96.42;101862.13;5101245;28;20508;-79
2023/05/14 01:10:19;;;;;;;14.88;9.25;;;;;;;14.05;97.72;101857.03;5103595;28;20040;-79
2023/05/14 01:12:46;;;;;;;15.18;9.73;;;;;;;14.19;97.08;101856.47;5101332;28;20028;-79
2023/05/14 01:15:20;;;;;;;16.55;9.75;;;;;;;14.24;96.05;101859.75;5084497;28;20070;-79
2023/05/14 01:17:50;;;;;;;15.25;10.18;;;;;;;14.15;96.71;101849.97;5080233;28;20073;-79
2023/05/14 01:20:16;;;;;;;16.77;10.57;;;;;;;14.22;96.29;101855.69;5106852;28;20107;-79
2023/05/14 01:22:41;;;;;;;11.38;8.80;;;;;;;14.10;96.66;101844.66;5081123;28;20122;-79
2023/05/14 01:25:07;;;;;;;19.63;9.82;;;;;;;14.23;95.46;101849.69;5085595;28;20038;-79
2023/05/14 01:27:45;;;;;;;13.55;9.35;;;;;;;14.13;96.07;101847.53;5089483;28;20062;-79
2023/05/14 01:30:32;;;;;;;24.27;12.15;;;;;;;14.05;97.29;101859.06;5083637;28;20034;-79
2023/05/14 01:33:01;;;;;;;21.17;10.15;;;;;;;14.01;97.90;101854.16;5083527;28;20038;-79
2023/05/14 01:35:28;;;;;;;14.93;9.98;;;;;;;13.98;98.71;101848.50;5099542;28;20489;-79
2023/05/14 01:38:00;;;;;;;16.92;9.20;;;;;;;14.03;97.41;101846.16;5080862;28;21614;-79
2023/05/14 01:40:26;;;;;;;21.92;10.35;;;;;;;13.93;97.83;101846.78;5097135;28;20048;-79
2023/05/14 01:42:52;;;;;;;24.50;11.20;;;;;;;13.86;98.15;101846.69;5079635;27;20382;-79
2023/05/14 01:45:20;;;;;;;15.20;10.35;;;;;;;13.89;98.27;101845.91;5102879;28;20080;-79
2023/05/14 01:47:46;;;;;;;17.73;9.63;;;;;;;13.94;97.87;101848.44;5100860;28;20076;-79
2023/05/14 01:50:11;;;;;;;16.33;9.43;;;;;;;13.60;100.00;101842.66;5082282;28;20135;-79
2023/05/14 01:52:36;;;;;;;15.70;9.90;;;;;;;13.62;100.00;101837.47;5096899;28;20106;-79
2023/05/14 01:55:03;;;;;;;16.95;9.45;;;;;;;13.70;99.23;101837.56;5097213;28;20063;-79
2023/05/14 01:57:29;;;;;;;15.07;9.43;;;;;;;13.75;99.04;101826.81;5080697;28;20681;-79
2023/05/14 01:59:55;;;;;;;17.15;9.88;;;;;;;13.55;100.00;101831.69;5082955;28;20024;-79
2023/05/14 02:02:20;;;;;;;17.10;9.60;;;;;;;13.59;99.80;101823.31;5086329;28;20067;-79
2023/05/14 02:04:45;;;;;;;18.08;9.63;;;;;;;13.69;99.59;101831.13;5080611;28;20089;-79
2023/05/14 02:07:11;;;;;;;19.88;10.02;;;;;;;13.71;99.33;101828.75;5096962;27;20138;-79
2023/05/14 02:09:36;;;;;;;16.17;9.50;;;;;;;13.69;99.04;101828.31;5077001;28;20040;-79
2023/05/14 02:12:02;;;;;;;20.58;9.95;;;;;;;13.73;98.61;101831.22;5080333;28;20062;-79
2023/05/14 02:14:27;;;;;;;15.52;10.40;;;;;;;13.69;99.10;101828.31;5074916;28;20026;-79
2023/05/14 02:16:52;;;;;;;14.82;10.38;;;;;;;13.61;99.94;101824.56;5096089;28;20027;-79
2023/05/14 02:19:18;;;;;;;18.20;10.30;;;;;;;13.49;100.00;101827.59;5078338;28;20501;-78
2023/05/14 02:21:43;;;;;;;17.98;10.00;;;;;;;13.64;98.86;101820.22;5076816;28;20027;-79
2023/05/14 02:24:08;;;;;;;17.98;9.77;;;;;;;13.56;99.75;101822.09;5082442;28;20741;-79
2023/05/14 02:26:34;;;;;;;14.20;9.45;;;;;;;13.49;100.00;101815.50;5094677;28;20032;-79
2023/05/14 02:28:59;;;;;;;17.02;9.82;;;;;;;13.38;100.00;101815.31;5094634;28;20045;-79
2023/05/14 02:31:24;;;;;;;15.75;9.35;;;;;;;13.44;100.00;101819.44;5076373;28;20032;-79
2023/05/14 02:33:50;;;;;;;17.02;10.55;;;;;;;13.21;100.00;101806.16;5081135;28;20032;-79
2023/05/14 02:36:15;;;;;;;17.45;9.75;;;;;;;13.37;100.00;101805.28;5075516;28;20053;-79
2023/05/14 02:38:40;;;;;;;17.63;11.18;;;;;;;13.26;100.00;101801.41;5094045;28;20034;-79
2023/05/14 02:41:06;;;;;;;16.83;10.38;;;;;;;13.34;100.00;101794.75;5095032;28;20164;-79
2023/05/14 02:43:32;;;;;;;14.82;10.40;;;;;;;13.35;100.00;101800.03;5096071;28;20193;-79
2023/05/14 02:45:58;;;;;;;16.63;9.25;;;;;;;13.25;100.00;101802.63;5079072;28;20452;-78
2023/05/14 02:48:23;;;;;;;17.63;9.07;;;;;;;13.43;99.93;101812.22;5081840;28;20506;-79
2023/05/14 02:50:50;;;;;;;16.48;9.88;;;;;;;13.44;99.77;101796.16;5077159;28;20084;-81
2023/05/14 02:53:15;;;;;;;14.93;9.18;;;;;;;13.18;100.00;101800.50;5080877;28;20084;-79
2023/05/14 02:55:41;;;;;;;17.90;10.05;;;;;;;13.07;100.00;101793.84;5092535;28;20039;-79
2023/05/14 02:58:06;;;;;;;18.42;10.02;;;;;;;13.20;100.00;101804.53;5069191;28;20024;-79
2023/05/14 03:00:31;;;;;;;16.33;9.88;;;;;;;13.31;100.00;101809.59;5081747;28;20031;-79
2023/05/14 03:02:57;;;;;;;15.93;8.63;;;;;;;13.33;100.00;101802.41;5078067;28;21614;-79
2023/05/14 03:05:22;;;;;;;16.98;9.88;;;;;;;13.38;100.00;101810.50;5074512;27;20067;-79
2023/05/14 03:07:50;;;;;;;16.15;9.55;;;;;;;13.37;100.00;101810.91;5078283;28;20118;-79
2023/05/14 03:10:15;;;;;;;17.00;10.65;;;;;;;13.35;100.00;101816.09;5094755;28;20050;-79
2023/05/14 03:12:41;;;;;;;20.27;10.15;;;;;;;13.32;100.00;101811.19;5101352;28;20481;-79
2023/05/14 03:15:07;;;;;;;17.73;8.90;;;;;;;13.08;100.00;101812.34;5099835;28;20085;-79
2023/05/14 03:17:32;;;;;;;19.40;10.13;;;;;;;13.12;100.00;101810.41;5079659;28;20038;-79
2023/05/14 03:19:58;;;;;;;13.52;8.85;;;;;;;13.04;100.00;101811.47;5100826;28;20027;-78
2023/05/14 03:22:23;;;;;;;16.02;9.75;;;;;;;13.11;100.00;101803.97;5079204;28;20027;-79
2023/05/14 03:24:49;;;;;;;14.13;8.75;;;;;;;13.18;100.00;101800.50;5084008;28;20027;-79
2023/05/14 03:27:14;;;;;;;16.58;10.32;;;;;;;12.97;100.00;101790.47;5076637;28;20066;-79
2023/05/14 03:29:39;;;;;;;13.48;9.32;;;;;;;12.97;100.00;101784.84;5100303;28;20119;-79
2023/05/14 03:32:05;;;;;;;13.40;8.02;;;;;;;13.21;100.00;101797.72;5094402;28;20115;-79
2023/05/14 03:34:31;;;;;;;15.32;9.13;;;;;;;13.03;100.00;101785.34;5082194;28;20623;-79
2023/05/14 03:36:56;;;;;;;12.00;8.68;;;;;;;13.04;100.00;101777.72;5074205;28;20483;-79
2023/05/14 03:39:22;;;;;;;15.55;8.98;;;;;;;13.04;100.00;101778.53;5079562;28;20118;-79
2023/05/14 03:41:48;;;;;;;14.65;8.23;;;;;;;13.15;100.00;101789.97;5094066;28;20066;-79
2023/05/14 03:44:13;;;;;;;17.83;8.88;;;;;;;13.02;100.00;101786.53;5072004;28;20019;-79
2023/05/14 03:46:39;;;;;;;14.48;9.13;;;;;;;13.04;100.00;101784.16;5092899;28;20071;-79
2023/05/14 03:49:05;;;;;;;17.65;9.57;;;;;;;12.98;100.00;101786.44;5090953;28;20031;-78
2023/05/14 03:51:30;;;;;;;18.48;8.55;;;;;;;13.02;100.00;101781.72;5073854;28;20445;-78
2023/05/14 03:53:57;;;;;;;11.20;7.70;;;;;;;12.97;100.00;101784.03;5092582;28;20132;-78
2023/05/14 03:56:22;;;;;;;14.50;8.95;;;;;;;12.99;100.00;101787.28;5066457;28;20370;-79
2023/05/14 03:58:48;;;;;;;15.07;7.97;;;;;;;13.01;100.00;101784.91;5094142;28;20022;-78
2023/05/14 04:01:13;;;;;;;14.10;8.80;;;;;;;13.08;100.00;101779.41;5074527;28;20039;-79
2023/05/14 04:03:38;;;;;;;15.82;8.02;;;;;;;13.00;100.00;101774.84;5074961;28;20460;-81
2023/05/14 04:06:04;;;;;;;13.07;7.85;;;;;;;13.03;100.00;101782.56;5094091;28;20032;-81
2023/05/14 04:08:29;;;;;;;14.77;8.55;;;;;;;12.95;100.00;101787.22;5095451;28;20028;-80
2023/05/14 04:10:55;;;;;;;14.45;8.05;;;;;;;13.06;100.00;101778.97;5096289;28;20027;-80
2023/05/14 04:13:20;;;;;;;12.02;8.02;;;;;;;13.05;100.00;101774.56;5075693;28;20024;-80
2023/05/14 04:15:46;;;;;;;13.82;8.38;;;;;;;12.89;100.00;101777.47;5075730;28;20084;-79
2023/05/14 04:18:11;;;;;;;12.75;8.55;;;;;;;12.86;100.00;101772.59;5092182;28;20059;-79
2023/05/14 04:20:36;;;;;;;11.52;7.55;;;;;;;12.76;100.00;101782.44;5077309;28;20085;-80
2023/05/14 04:23:02;;;;;;;13.38;8.27;;;;;;;12.67;100.00;101770.63;5096343;28;20077;-79
2023/05/14 04:25:27;;;;;;;13.43;7.72;;;;;;;12.92;100.00;101770.28;5074897;28;20400;-80
2023/05/14 04:27:53;;;;;;;13.95;8.73;;;;;;;12.58;100.00;101768.00;5092354;28;20080;-79
2023/05/14 04:30:18;;;;;;;16.27;8.95;;;;;;;12.71;100.00;101777.13;5070481;28;20074;-79
2023/05/14 04:32:44;;;;;;;11.95;7.72;;;;;;;12.64;100.00;101776.97;5071119;28;20450;-79
2023/05/14 04:35:10;;;;;;;10.13;7.82;;;;;;;12.75;100.00;101755.50;5069833;28;20477;-80
2023/05/14 04:37:35;;;;;;;14.35;8.23;;;;;;;12.78;100.00;101774.44;5092122;28;20284;-79
2023/05/14 04:40:01;;;;;;;13.93;7.57;;;;;;;12.94;100.00;101773.53;5070474;28;20096;-79
2023/05/14 04:42:26;;;;;;;11.80;7.32;;;;;;;12.89;100.00;101773.84;5092515;28;20040;-79
2023/05/14 04:44:52;;;;;;;11.38;6.88;;;;;;;12.58;100.00;101767.22;5096793;28;20039;-80
2023/05/14 04:47:17;;;;;;;11.80;7.68;;;;;;;12.67;100.00;101775.41;5093356;28;20031;-79
2023/05/14 04:49:42;;;;;;;12.43;8.38;;;;;;;12.72;100.00;101781.53;5095773;28;20027;-80
2023/05/14 04:52:08;;;;;;;13.13;8.02;;;;;;;12.71;100.00;101782.75;5081453;28;20027;-80
2023/05/14 04:54:35;;;;;;;15.05;7.88;;;;;;;12.69;100.00;101773.03;5093681;28;20107;-80
2023/05/14 04:57:02;;;;;;;16.52;8.60;;;;;;;12.74;100.00;101787.59;5094706;28;20023;-80
2023/05/14 04:59:28;;;;;;;15.50;8.88;;;;;;;12.56;100.00;101775.19;5081021;28;20019;-80
2023/05/14 05:01:53;;;;;;;13.48;7.97;;;;;;;12.77;100.00;101772.00;5091613;28;20023;-80
2023/05/14 05:04:19;;;;;;;11.85;7.95;;;;;;;12.73;100.00;101779.53;5080192;28;20030;-80
2023/05/14 05:06:44;;;;;;;15.88;8.07;;;;;;;12.74;100.00;101781.19;5081046;28;20026;-80
2023/05/14 05:09:09;;;;;;;9.82;6.93;;;;;;;12.85;100.00;101782.19;5087112;28;20016;-79
2023/05/14 05:11:35;;;;;;;12.43;6.95;;;;;;;13.00;100.00;101788.91;5083421;28;20028;-80
2023/05/14 05:14:00;;;;;;;12.05;7.53;;;;;;;12.99;100.00;101784.47;5087247;28;20039;-80
2023/05/14 05:16:25;;;;;;;18.75;9.73;;;;;;;12.96;100.00;101782.41;5101786;28;20035;-80
2023/05/14 05:18:51;;;;;;;16.23;9.32;;;;;;;12.72;100.00;101784.34;5085151;28;20023;-79
2023/05/14 05:21:16;;;;;;;13.45;7.95;;;;;;;12.83;100.00;101770.50;5086024;27;20027;-80
2023/05/14 05:23:41;;;;;;;16.02;8.07;;;;;;;12.88;100.00;101794.69;5088526;28;20036;-80
2023/05/14 05:26:07;;;;;;;12.05;8.45;;;;;;;12.81;100.00;101796.16;5106600;27;20413;-80
2023/05/14 05:28:32;;;;;;;15.35;8.55;;;;;;;12.92;100.00;101787.13;5087605;28;20059;-79
2023/05/14 05:30:57;;;;;;;12.45;7.70;;;;;;;12.74;100.00;101798.84;5102454;27;20028;-79
2023/05/14 05:33:23;;;;;;;13.35;8.18;;;;;;;12.72;100.00;101795.59;5081271;28;20102;-80
2023/05/14 05:35:49;;;;;;;18.50;8.90;;;;;;;12.83;100.00;101790.19;5095457;28;20533;-80
2023/05/14 05:38:15;;;;;;;16.38;9.88;;;;;;;12.89;100.00;101787.88;5084023;28;20039;-80
2023/05/14 05:40:40;;;;;;;17.20;7.72;;;;;;;12.85;100.00;101775.78;5088199;28;20113;-80
2023/05/14 05:43:05;;;;;;;17.88;10.23;;;;;;;12.93;100.00;101788.78;5095864;28;20108;-79
2023/05/14 05:45:31;;;;;;;22.35;10.20;;;;;;;12.90;100.00;101792.31;5099034;28;20476;-80
2023/05/14 05:47:56;;;;;;;15.10;9.55;;;;;;;12.79;100.00;101790.09;5100218;28;20035;-80
2023/05/14 05:50:22;;;;;;;15.77;9.32;;;;;;;12.62;100.00;101782.13;5099642;27;20035;-80
2023/05/14 05:52:47;;;;;;;19.38;9.93;;;;;;;12.66;100.00;101787.84;5081599;28;20019;-79
2023/05/14 05:55:12;;;;;;;12.45;8.18;;;;;;;13.02;100.00;101784.53;5099677;28;20092;-80
2023/05/14 05:57:38;;;;;;;16.55;9.30;;;;;;;12.65;100.00;101784.22;5078492;28;20111;-80
2023/05/14 06:00:11;;;;;;;15.38;9.80;;;;;;;12.77;100.00;101792.47;5074551;28;20089;-80
2023/05/14 06:02:38;;;;;;;13.32;9.50;;;;;;;12.76;100.00;101790.84;5093288;28;20023;-79
2023/05/14 06:05:04;;;;;;;18.25;10.95;;;;;;;12.76;100.00;101790.84;5075885;28;20509;-80
2023/05/14 06:07:29;;;;;;;16.55;9.88;;;;;;;12.79;100.00;101792.91;5087548;28;20028;-80
2023/05/14 06:09:55;;;;;;;17.20;9.27;;;;;;;13.07;100.00;101797.47;5080598;28;20035;-79
2023/05/14 06:12:20;;;;;;;17.67;9.57;;;;;;;12.83;100.00;101790.19;5089195;27;20020;-80
2023/05/14 06:14:46;;;;;;;16.13;9.07;;;;;;;12.97;100.00;101789.66;5076298;27;20577;-80
2023/05/14 06:17:12;;;;;;;19.02;11.40;;;;;;;12.72;100.00;101789.97;5088482;28;20031;-80
2023/05/14 06:19:37;;;;;;;15.25;10.07;;;;;;;12.96;100.00;101796.44;5082930;28;20093;-80
2023/05/14 06:22:03;;;;;;;15.30;9.00;;;;;;;13.12;100.00;101797.16;5096170;27;20235;-79
2023/05/14 06:24:28;;;;;;;18.55;10.90;;;;;;;12.91;100.00;101803.19;5077871;28;20452;-80
2023/05/14 06:26:53;;;;;;;22.15;10.30;;;;;;;13.02;100.00;101804.19;5096291;28;20119;-79
2023/05/14 06:29:19;;;;;;;16.17;11.70;;;;;;;13.10;100.00;101812.78;5095534;28;20051;-80
2023/05/14 06:31:45;;;;;;;16.55;9.15;;;;;;;13.07;100.00;101805.91;5078577;28;20161;-80
2023/05/14 06:34:10;;;;;;;18.17;10.43;;;;;;;13.25;100.00;101825.91;5079254;28;20024;-80
2023/05/14 06:36:36;;;;;;;19.65;11.55;;;;;;;13.34;100.00;101820.06;5078025;28;20028;-80
2023/05/14 06:39:02;;;;;;;15.73;10.45;;;;;;;13.20;100.00;101815.78;5092006;28;20040;-80
2023/05/14 06:41:28;;;;;;;18.27;9.82;;;;;;;13.35;100.00;101810.47;5082396;28;20031;-80
2023/05/14 06:43:54;;;;;;;19.88;10.43;;;;;;;13.52;100.00;101815.59;5099954;28;20035;-79
2023/05/14 06:46:19;;;;;;;17.45;10.63;;;;;;;13.59;100.00;101792.38;5091347;28;20035;-80
2023/05/14 06:48:45;;;;;;;16.33;9.88;;;;;;;13.63;100.00;101787.63;5076478;28;20031;-80
2023/05/14 06:51:12;;;;;;;20.17;11.80;;;;;;;13.31;100.00;101809.59;5094742;28;20058;-80
2023/05/14 06:53:38;;;;;;;20.85;10.38;;;;;;;13.48;100.00;101806.25;5072628;28;20476;-80
2023/05/14 06:56:03;;;;;;;26.60;13.45;;;;;;;13.36;100.00;101792.38;5075290;28;20066;-79
2023/05/14 06:58:29;;;;;;;20.10;10.20;;;;;;;13.52;100.00;101793.09;5081983;28;20031;-80
2023/05/14 07:00:54;;;;;;;15.15;10.43;;;;;;;13.50;100.00;101789.84;5073771;28;20038;-80
2023/05/14 07:03:21;;;;;;;19.38;12.50;;;;;;;13.57;100.00;101781.50;5074869;28;20073;-80
2023/05/14 07:05:46;;;;;;;21.58;12.50;;;;;;;13.68;100.00;101783.69;5081633;28;20053;-80
2023/05/14 07:08:12;;;;;;;18.33;10.82;;;;;;;13.73;100.00;101780.56;5082409;28;20032;-80
2023/05/14 07:10:38;;;;;;;19.27;10.00;;;;;;;13.79;100.00;101785.47;5079380;28;20063;-79
2023/05/14 07:13:04;;;;;;;20.35;12.13;;;;;;;13.48;100.00;101780.97;5100415;28;20065;-79
2023/05/14 07:15:29;;;;;;;19.08;10.70;;;;;;;13.39;100.00;101777.59;5100433;28;20446;-79
2023/05/14 07:17:55;;;;;;;20.40;10.15;;;;;;;13.70;100.00;101770.84;5083280;28;20378;-79
2023/05/14 07:20:22;;;;;;;23.05;10.95;;;;;;;13.70;100.00;101781.31;5081122;28;20110;-79
2023/05/14 07:22:51;;;;;;;17.02;10.57;;;;;;;13.97;100.00;101782.94;5080864;28;20542;-80
2023/05/14 07:25:17;;;;;;;22.92;12.23;;;;;;;13.88;100.00;101776.78;5081706;28;20023;-79
2023/05/14 07:27:42;;;;;;;19.95;11.00;;;;;;;13.73;100.00;101780.56;5085550;28;20042;-79
2023/05/14 07:30:07;;;;;;;24.52;12.63;;;;;;;13.82;100.00;101773.47;5080739;28;20031;-83
2023/05/14 07:32:33;;;;;;;16.90;10.63;;;;;;;13.99;100.00;101772.09;5084456;28;20520;-89
2023/05/14 07:34:58;;;;;;;21.05;11.02;;;;;;;14.05;100.00;101769.78;5086584;28;20024;-88
2023/05/14 07:37:24;;;;;;;15.30;9.63;;;;;;;14.07;100.00;101780.66;5101098;28;20366;-89
2023/05/14 07:39:50;;;;;;;22.17;11.55;;;;;;;14.09;100.00;101778.28;5085077;28;20033;-88
2023/05/14 07:42:16;;;;;;;21.48;11.23;;;;;;;14.29;100.00;101776.13;5081632;28;20029;-89
2023/05/14 07:44:42;;;;;;;23.00;12.10;;;;;;;14.26;100.00;101774.09;5080067;28;20051;-89
2023/05/14 07:47:07;;;;;;;23.48;13.90;;;;;;;14.33;100.00;101777.78;5072367;28;20027;-89
2023/05/14 07:49:33;;;;;;;18.33;11.23;;;;;;;14.52;100.00;101776.03;5074163;28;20173;-89
2023/05/14 07:51:58;;;;;;;18.60;10.30;;;;;;;14.34;100.00;101773.00;5076871;28;20498;-89
2023/05/14 07:54:24;;;;;;;17.33;9.50;;;;;;;14.32;100.00;101770.56;5075828;28;20581;-83
2023/05/14 07:56:49;;;;;;;24.35;11.85;;;;;;;14.43;100.00;101767.88;5079920;28;20035;-79
2023/05/14 07:59:14;;;;;;;16.45;11.05;;;;;;;14.56;100.00;101765.66;5074195;28;20024;-79
2023/05/14 08:01:40;;;;;;;20.83;12.57;;;;;;;14.68;100.00;101748.50;5086602;28;20031;-79
2023/05/14 08:04:06;;;;;;;18.38;10.38;;;;;;;14.67;100.00;101766.56;5076966;28;20036;-79
2023/05/14 08:06:32;;;;;;;17.60;12.35;;;;;;;14.69;100.00;101757.75;5080894;28;20024;-79
2023/05/14 08:08:57;;;;;;;18.35;11.40;;;;;;;14.72;100.00;101754.97;5072856;28;20040;-79
2023/05/14 08:11:23;;;;;;;20.42;11.73;;;;;;;14.82;100.00;101762.75;5080398;28;20035;-79
2023/05/14 08:13:48;;;;;;;18.38;10.50;;;;;;;14.88;100.00;101762.38;5082391;28;20027;-79
2023/05/14 08:16:13;;;;;;;16.73;10.23;;;;;;;15.03;100.00;101755.69;5073886;28;20032;-83
2023/05/14 08:18:39;;;;;;;17.00;9.80;;;;;;;15.21;100.00;101762.31;5082077;28;20024;-83
2023/05/14 08:21:04;;;;;;;17.70;9.75;;;;;;;15.25;100.00;101759.53;5072934;28;20085;-82
2023/05/14 08:23:30;;;;;;;17.45;10.48;;;;;;;15.28;100.00;101772.06;5069184;28;20028;-82
2023/05/14 08:25:55;;;;;;;25.05;10.57;;;;;;;15.37;100.00;101770.53;5073547;28;21727;-83
2023/05/14 08:28:21;;;;;;;13.10;9.43;;;;;;;15.46;100.00;101758.91;5064083;28;21021;-83
2023/05/14 08:30:46;;;;;;;18.85;10.50;;;;;;;15.54;100.00;101771.09;5071106;28;20028;-83
2023/05/14 08:33:11;;;;;;;13.63;10.43;;;;;;;15.62;100.00;101773.56;5078626;28;20039;-83
2023/05/14 08:35:37;;;;;;;17.27;9.52;;;;;;;15.62;100.00;101765.09;5066488;28;20052;-83
2023/05/14 08:38:02;;;;;;;20.63;11.43;;;;;;;15.62;100.00;101759.47;5077383;28;20024;-83
2023/05/14 08:40:27;;;;;;;18.50;10.70;;;;;;;15.63;100.00;101772.34;5079757;28;20056;-83
2023/05/14 08:42:55;;;;;;;16.85;9.73;;;;;;;15.77;100.00;101759.56;5084121;28;20035;-84
2023/05/14 08:45:26;;;;;;;15.82;9.77;;;;;;;15.90;100.00;101748.78;5082437;28;20027;-83
2023/05/14 08:47:51;;;;;;;16.65;10.18;;;;;;;15.92;100.00;101761.31;5073226;28;20016;-83
2023/05/14 08:50:18;;;;;;;14.70;8.82;;;;;;;15.96;100.00;101762.16;5080663;28;20024;-84
2023/05/14 08:52:44;;;;;;;16.98;10.02;;;;;;;15.98;100.00;101768.22;5074413;28;20028;-83
2023/05/14 08:55:11;;;;;;;15.00;9.68;;;;;;;16.04;100.00;101762.97;5085929;28;20165;-83
2023/05/14 08:57:36;;;;;;;15.57;9.23;;;;;;;16.11;100.00;101765.88;5074505;28;20037;-84
2023/05/14 09:00:07;;;;;;;19.55;10.18;;;;;;;16.17;100.00;101766.28;5078576;28;20478;-83
2023/05/14 09:02:34;;;;;;;15.02;10.45;;;;;;;16.15;100.00;101763.88;5075028;28;20031;-84
2023/05/14 09:05:01;;;;;;;17.02;9.55;;;;;;;16.11;100.00;101750.94;5073448;28;20036;-84
2023/05/14 09:07:26;;;;;;;12.57;7.45;;;;;;;16.39;100.00;101756.72;5095478;28;20473;-74
2023/05/14 09:09:54;;;;;;;18.15;9.00;;;;;;;16.31;100.00;101746.59;5078672;28;20031;-83
2023/05/14 09:12:20;;;;;;;23.33;11.27;;;;;;;16.29;100.00;101745.38;5078943;28;20032;-83
2023/05/14 09:14:47;;;;;;;17.15;9.43;;;;;;;16.23;100.00;101747.75;5061844;28;20381;-78
2023/05/14 09:17:12;;;;;;;19.65;10.25;;;;;;;16.23;100.00;101750.56;5068908;28;20074;-78
2023/05/14 09:19:39;;;;;;;15.38;9.40;;;;;;;16.15;100.00;101749.75;5076272;28;20338;-78
2023/05/14 09:22:08;;;;;;;16.98;10.07;;;;;;;16.30;100.00;101742.16;5069704;28;20059;-79
2023/05/14 09:24:33;;;;;;;18.40;10.30;;;;;;;16.37;100.00;101742.16;5072060;28;20036;-79
2023/05/14 09:26:58;;;;;;;15.95;9.32;;;;;;;16.46;100.00;101744.63;5078432;28;20078;-79
2023/05/14 09:29:25;;;;;;;15.43;10.15;;;;;;;16.64;100.00;101741.88;5075848;28;20032;-79
2023/05/14 09:31:51;;;;;;;17.80;8.95;;;;;;;17.02;100.00;101728.25;5079211;28;20040;-78
2023/05/14 09:34:24;;;;;;;15.88;8.82;;;;;;;17.10;98.51;101732.72;5072594;28;20023;-79
2023/05/14 09:36:49;;;;;;;17.13;9.02;;;;;;;17.37;98.12;101737.97;5076655;28;20032;-78
2023/05/14 09:39:16;;;;;;;13.73;8.85;;;;;;;17.33;96.63;101740.81;5079417;28;20059;-83
2023/05/14 09:41:41;;;;;;;18.13;10.20;;;;;;;17.38;97.71;101731.09;5081130;28;20678;-80
2023/05/14 09:44:07;;;;;;;17.33;9.10;;;;;;;17.36;98.36;101727.88;5079836;28;20047;-77
2023/05/14 09:46:32;;;;;;;22.27;9.30;;;;;;;17.28;97.30;101730.69;5080726;28;20533;-79
2023/05/14 09:48:58;;;;;;;16.73;8.43;;;;;;;17.56;94.41;101728.25;5088302;28;20032;-77
2023/05/14 09:51:23;;;;;;;15.05;9.23;;;;;;;17.52;95.74;101722.63;5088219;28;20031;-84
2023/05/14 09:53:51;;;;;;;15.43;9.43;;;;;;;17.53;96.23;101726.25;5083935;28;20448;-80
2023/05/14 09:56:18;;;;;;;17.73;10.35;;;;;;;17.83;95.94;101729.47;5072634;28;20129;-85
2023/05/14 09:58:44;;;;;;;26.88;9.02;;;;;;;17.80;95.81;101726.63;5076700;28;21193;-82
2023/05/14 10:01:10;;;;;;;16.05;8.00;;;;;;;18.43;91.24;101721.97;5077486;28;20389;-83
2023/05/14 10:03:35;;;;;;;16.50;8.60;;;;;;;18.23;91.71;101718.81;5078891;28;20135;-82
2023/05/14 10:06:05;;;;;;;15.68;9.60;;;;;;;18.04;92.57;101717.25;5086855;28;20115;-83
2023/05/14 10:08:34;;;;;;;19.40;9.27;;;;;;;18.33;91.42;101722.84;5081634;28;20032;-78
2023/05/14 10:11:03;;;;;;;16.73;8.68;;;;;;;18.36;91.14;101715.53;5077389;28;20117;-78
2023/05/14 10:13:40;;;;;;;18.77;9.85;;;;;;;18.14;93.09;101714.81;5076583;28;20142;-78
2023/05/14 10:16:27;;;;;;;22.38;10.38;;;;;;;18.39;91.84;101715.53;5079536;28;20032;-78
2023/05/14 10:18:57;;;;;;;14.70;10.38;;;;;;;18.48;91.63;101715.88;5080115;28;20016;-78
2023/05/14 10:21:24;;;;;;;19.48;9.20;;;;;;;18.59;90.02;101709.34;5079509;28;20026;-78
2023/05/14 10:23:50;;;;;;;16.58;9.10;;;;;;;18.75;88.88;101714.53;5085643;28;20031;-78
2023/05/14 10:26:15;;;;;;;19.73;8.65;;;;;;;18.84;88.08;101709.22;5093399;28;20309;-78
2023/05/14 10:28:41;;;;;;;12.38;7.65;;;;;;;18.89;85.17;101697.47;5082710;28;20497;-78
2023/05/14 10:31:10;;;;;;;10.27;7.57;;;;;;;19.04;86.06;101701.78;5079362;28;20027;-78
2023/05/14 10:33:49;;;;;;;15.35;8.65;;;;;;;19.32;85.02;101697.09;5077327;28;20028;-78
2023/05/14 10:36:16;;;;;;;11.45;6.00;;;;;;;19.46;84.42;101702.66;5080555;28;20493;-77
2023/05/14 10:38:41;;;;;;;15.13;7.22;;;;;;;19.42;81.59;101701.09;5075038;28;20047;-77
2023/05/14 10:41:12;;;;;;;12.02;6.75;;;;;;;19.27;82.15;101692.69;5075896;28;20035;-75
2023/05/14 10:43:39;;;;;;;10.10;7.00;;;;;;;19.56;81.05;101689.56;5094491;27;20028;-76
2023/05/14 10:46:06;;;;;;;12.38;7.85;;;;;;;19.54;76.82;101682.72;5078603;28;20028;-75
2023/05/14 10:48:32;;;;;;;13.70;7.65;;;;;;;19.75;75.23;101681.72;5076475;28;20062;-76
2023/05/14 10:50:58;;;;;;;11.52;6.75;;;;;;;19.88;75.70;101679.94;5078490;28;20564;-75
2023/05/14 10:53:35;;;;;;;13.50;8.07;;;;;;;20.19;74.69;101674.28;5087674;28;20032;-76
2023/05/14 10:56:03;;;;;;;11.70;8.07;;;;;;;19.78;73.37;101672.34;5082095;28;20490;-76
2023/05/14 10:58:32;;;;;;;10.30;6.20;;;;;;;19.52;78.68;101673.81;5080770;28;20093;-76
2023/05/14 11:00:58;;;;;;;13.73;8.23;;;;;;;19.54;77.93;101674.97;5080613;28;20115;-76
2023/05/14 11:03:29;;;;;;;10.45;6.75;;;;;;;19.85;78.05;101672.28;5079615;28;20489;-77
2023/05/14 11:05:54;;;;;;;9.88;7.15;;;;;;;19.76;80.60;101669.94;5078045;28;20060;-77